createdAt,value
2023-02-18T00:02:29.868Z,24.80
2023-02-18T00:05:00.140Z,24.80
2023-02-18T00:07:31.312Z,24.80
2023-02-18T00:10:01.551Z,24.80
2023-02-18T00:12:33.744Z,24.80
2023-02-18T00:15:04.126Z,24.80
2023-02-18T00:17:34.874Z,24.90
2023-02-18T00:20:05.927Z,24.90
2023-02-18T00:22:36.726Z,24.90
2023-02-18T00:25:07.262Z,24.90
2023-02-18T00:27:37.602Z,24.90
2023-02-18T00:30:08.720Z,25.00
2023-02-18T00:32:39.237Z,25.00
2023-02-18T00:35:09.992Z,25.00
2023-02-18T00:37:40.699Z,25.00
2023-02-18T00:40:11.551Z,25.00
2023-02-18T00:42:42.025Z,25.00
2023-02-18T00:45:12.639Z,25.10
2023-02-18T00:47:43.317Z,25.10
2023-02-18T00:50:13.902Z,25.10
2023-02-18T00:52:44.204Z,25.10
2023-02-18T00:55:14.436Z,25.10
2023-02-18T00:57:44.691Z,25.10
2023-02-18T01:00:15.428Z,25.20
2023-02-18T01:02:45.962Z,25.20
2023-02-18T01:05:16.288Z,25.20
2023-02-18T01:07:46.588Z,25.20
2023-02-18T01:10:19.071Z,25.20
2023-02-18T01:12:49.600Z,25.20
2023-02-18T01:15:20.272Z,25.20
2023-02-18T01:17:53.553Z,25.20
2023-02-18T01:20:23.891Z,25.30
2023-02-18T01:22:55.087Z,25.30
2023-02-18T01:25:25.462Z,25.30
2023-02-18T01:27:55.858Z,25.30
2023-02-18T01:30:26.772Z,25.30
2023-02-18T01:32:58.391Z,25.30
2023-02-18T01:35:29.132Z,25.40
2023-02-18T01:37:59.642Z,25.40
2023-02-18T01:40:32.074Z,25.40
2023-02-18T01:43:02.689Z,25.50
2023-02-18T01:45:43.952Z,25.50
2023-02-18T01:48:26.703Z,25.50
2023-02-18T01:51:03.068Z,25.50
2023-02-18T01:54:03.232Z,25.50
2023-02-18T01:56:46.319Z,25.60
2023-02-18T01:59:26.389Z,25.50
2023-02-18T02:01:57.975Z,25.60
2023-02-18T02:04:28.605Z,25.60
2023-02-18T02:06:58.890Z,25.60
2023-02-18T02:09:31.711Z,25.60
2023-02-18T02:12:27.725Z,25.60
2023-02-18T02:15:10.007Z,25.70
2023-02-18T02:17:50.650Z,25.70
2023-02-18T02:20:46.445Z,25.70
2023-02-18T02:23:34.596Z,25.70
2023-02-18T02:26:38.021Z,25.70
2023-02-18T02:29:17.566Z,25.80
2023-02-18T02:32:03.701Z,25.70
2023-02-18T02:34:55.207Z,25.80
2023-02-18T02:37:34.352Z,25.80
2023-02-18T02:40:22.483Z,25.80
2023-02-18T02:43:06.932Z,25.80
2023-02-18T02:45:56.877Z,25.80
2023-02-18T02:49:08.141Z,25.80
2023-02-18T02:51:47.643Z,25.90
2023-02-18T02:54:27.290Z,25.80
2023-02-18T02:57:32.130Z,25.90
2023-02-18T03:00:11.738Z,26.00
2023-02-18T03:02:47.986Z,25.90
2023-02-18T03:06:18.591Z,25.90
2023-02-18T03:09:09.235Z,26.00
2023-02-18T03:11:49.830Z,26.00
2023-02-18T03:14:49.038Z,26.00
2023-02-18T03:17:37.813Z,26.00
2023-02-18T03:20:21.302Z,26.00
2023-02-18T03:22:53.621Z,26.00
2023-02-18T03:25:25.923Z,26.00
2023-02-18T03:28:00.179Z,26.00
2023-02-18T03:30:50.332Z,26.00
2023-02-18T03:33:34.757Z,26.10
2023-02-18T03:36:06.045Z,26.10
2023-02-18T03:38:42.455Z,26.10
2023-02-18T03:41:13.546Z,26.10
2023-02-18T03:43:51.559Z,26.10
2023-02-18T03:46:22.402Z,26.10
2023-02-18T03:48:53.104Z,26.10
2023-02-18T03:51:23.910Z,26.10
2023-02-18T03:53:54.273Z,26.10
2023-02-18T03:56:24.734Z,26.20
2023-02-18T03:58:55.074Z,26.20
2023-02-18T04:01:25.408Z,26.20
2023-02-18T04:03:57.226Z,26.20
2023-02-18T04:06:27.893Z,26.20
2023-02-18T04:08:58.446Z,26.20
2023-02-18T04:11:28.839Z,26.20
2023-02-18T04:13:59.121Z,26.20
2023-02-18T04:16:29.443Z,26.20
2023-02-18T04:18:59.730Z,26.20
2023-02-18T04:21:29.966Z,26.20
2023-02-18T04:24:00.386Z,26.20
2023-02-18T04:26:30.800Z,26.30
2023-02-18T04:29:01.345Z,26.30
2023-02-18T04:31:31.806Z,26.30
2023-02-18T04:34:02.258Z,26.30
2023-02-18T04:36:32.471Z,26.30
2023-02-18T04:39:03.004Z,26.30
2023-02-18T04:41:33.540Z,26.30
2023-02-18T04:44:03.893Z,26.30
2023-02-18T04:46:34.752Z,26.30
2023-02-18T04:49:05.146Z,26.30
2023-02-18T04:51:35.383Z,26.30
2023-02-18T04:54:06.426Z,26.30
2023-02-18T04:56:36.659Z,26.40
2023-02-18T04:59:06.967Z,26.40
2023-02-18T05:01:37.521Z,26.40
2023-02-18T05:04:07.837Z,26.40
2023-02-18T05:06:39.855Z,26.40
2023-02-18T05:09:10.187Z,26.40
2023-02-18T05:11:40.586Z,26.40
2023-02-18T05:14:11.320Z,26.40
2023-02-18T05:16:41.766Z,26.50
2023-02-18T05:19:15.656Z,26.40
2023-02-18T05:21:46.709Z,26.50
2023-02-18T05:24:16.969Z,26.50
2023-02-18T05:26:47.268Z,26.50
2023-02-18T05:29:17.553Z,26.50
2023-02-18T05:31:47.906Z,26.50
2023-02-18T05:34:18.353Z,26.50
2023-02-18T05:36:48.680Z,26.50
2023-02-18T05:39:18.949Z,26.50
2023-02-18T05:41:49.186Z,26.50
2023-02-18T05:44:35.080Z,26.60
2023-02-18T05:47:11.049Z,26.50
2023-02-18T05:49:43.791Z,26.50
2023-02-18T05:52:14.745Z,26.60
2023-02-18T05:54:45.327Z,26.60
2023-02-18T05:57:17.189Z,26.60
2023-02-18T05:59:47.421Z,26.60
2023-02-18T06:02:17.732Z,26.60
2023-02-18T06:04:48.099Z,26.60
2023-02-18T06:07:18.595Z,26.70
2023-02-18T06:09:49.291Z,26.70
2023-02-18T06:12:19.540Z,26.70
2023-02-18T06:14:50.166Z,26.70
2023-02-18T06:17:20.802Z,26.70
2023-02-18T06:19:51.452Z,26.70
2023-02-18T06:22:21.681Z,26.70
2023-02-18T06:24:52.003Z,26.70
2023-02-18T06:27:23.193Z,26.70
2023-02-18T06:29:53.632Z,26.70
2023-02-18T06:32:24.012Z,26.70
2023-02-18T06:34:54.511Z,26.70
2023-02-18T06:37:24.712Z,26.70
2023-02-18T06:39:55.066Z,26.70
2023-02-18T06:42:25.448Z,26.70
2023-02-18T06:44:55.758Z,26.70
2023-02-18T06:47:26.106Z,26.70
2023-02-18T06:49:56.389Z,26.80
2023-02-18T06:52:26.664Z,26.80
2023-02-18T06:54:57.025Z,26.80
2023-02-18T06:57:27.217Z,26.80
2023-02-18T06:59:57.478Z,26.80
2023-02-18T07:02:27.754Z,26.80
2023-02-18T07:04:58.092Z,26.80
2023-02-18T07:07:28.397Z,26.80
2023-02-18T07:09:58.602Z,26.80
2023-02-18T07:12:30.254Z,26.90
2023-02-18T07:15:01.939Z,26.80
2023-02-18T07:17:32.449Z,26.90
2023-02-18T07:20:02.820Z,26.90
2023-02-18T07:22:33.277Z,26.80
2023-02-18T07:25:03.707Z,26.80
2023-02-18T07:27:33.954Z,26.90
2023-02-18T07:30:04.531Z,26.90
2023-02-18T07:32:34.969Z,26.90
2023-02-18T07:35:06.536Z,26.90
2023-02-18T07:37:36.957Z,26.90
2023-02-18T07:40:08.176Z,26.90
2023-02-18T07:42:38.671Z,26.90
2023-02-18T07:45:09.277Z,26.90
2023-02-18T07:47:40.060Z,26.90
2023-02-18T07:50:11.097Z,26.90
2023-02-18T07:52:41.783Z,26.90
2023-02-18T07:55:12.394Z,27.00
2023-02-18T07:57:59.002Z,26.90
2023-02-18T08:00:29.279Z,27.00
2023-02-18T08:02:59.680Z,26.90
2023-02-18T08:05:29.913Z,26.90
2023-02-18T08:08:00.207Z,27.00
2023-02-18T08:10:31.313Z,27.00
2023-02-18T08:13:01.575Z,27.00
2023-02-18T08:15:31.823Z,27.00
2023-02-18T08:18:02.342Z,27.00
2023-02-18T08:20:32.763Z,27.00
2023-02-18T08:23:03.060Z,27.00
2023-02-18T08:25:33.845Z,27.00
2023-02-18T08:28:06.437Z,27.00
2023-02-18T08:30:38.086Z,26.90
2023-02-18T08:33:09.372Z,26.90
2023-02-18T08:35:39.689Z,26.90
2023-02-18T08:38:10.990Z,26.90
2023-02-18T08:40:42.764Z,26.90
2023-02-18T08:43:14.772Z,26.90
2023-02-18T08:45:46.972Z,26.90
2023-02-18T08:48:20.559Z,26.90
2023-02-18T08:50:51.481Z,26.90
2023-02-18T08:53:22.659Z,26.90
2023-02-18T08:55:53.744Z,26.90
2023-02-18T08:58:24.378Z,26.90
2023-02-18T09:00:55.470Z,26.90
2023-02-18T09:03:25.811Z,26.90
2023-02-18T09:05:56.331Z,26.90
2023-02-18T09:08:32.998Z,26.90
2023-02-18T09:11:07.069Z,26.90
2023-02-18T09:13:38.308Z,26.90
2023-02-18T09:16:14.436Z,26.80
2023-02-18T09:18:46.926Z,26.90
2023-02-18T09:21:20.991Z,26.90
2023-02-18T09:23:52.266Z,26.90
2023-02-18T09:26:24.720Z,26.90
2023-02-18T09:28:56.398Z,26.90
2023-02-18T09:31:28.637Z,26.90
2023-02-18T09:34:04.328Z,26.90
2023-02-18T09:36:35.121Z,26.80
2023-02-18T09:39:05.411Z,26.70
2023-02-18T09:41:40.612Z,26.70
2023-02-18T09:44:16.349Z,26.70
2023-02-18T09:47:03.831Z,26.70
2023-02-18T09:49:39.438Z,26.60
2023-02-18T09:52:35.012Z,26.60
2023-02-18T09:55:21.278Z,26.50
2023-02-18T09:58:04.321Z,26.50
2023-02-18T10:01:19.138Z,26.40
2023-02-18T10:03:49.697Z,26.40
2023-02-18T10:06:32.328Z,26.30
2023-02-18T10:09:23.166Z,26.30
2023-02-18T10:12:05.777Z,26.30
2023-02-18T10:14:37.902Z,26.30
2023-02-18T10:17:10.260Z,26.30
2023-02-18T10:19:45.232Z,26.30
2023-02-18T10:22:17.421Z,26.30
2023-02-18T10:25:02.893Z,26.30
2023-02-18T10:27:36.003Z,26.40
2023-02-18T10:30:26.025Z,26.30
2023-02-18T10:33:18.468Z,26.40
2023-02-18T10:36:04.860Z,26.40
2023-02-18T10:38:58.372Z,26.40
2023-02-18T10:41:46.779Z,26.40
2023-02-18T10:44:35.444Z,26.40
2023-02-18T10:47:20.719Z,26.40
2023-02-18T10:50:03.123Z,26.40
2023-02-18T10:52:39.542Z,26.40
2023-02-18T10:55:20.313Z,26.50
2023-02-18T10:57:59.422Z,26.50
2023-02-18T11:00:30.470Z,26.50
2023-02-18T11:03:22.957Z,26.50
2023-02-18T11:05:59.151Z,26.50
2023-02-18T11:08:41.236Z,26.50
2023-02-18T11:11:22.944Z,26.50
2023-02-18T11:13:57.927Z,26.50
2023-02-18T11:16:40.671Z,26.50
2023-02-18T11:19:35.883Z,26.50
2023-02-18T11:22:28.214Z,26.50
2023-02-18T11:25:01.243Z,26.50
2023-02-18T11:27:58.217Z,26.40
2023-02-18T11:30:46.892Z,26.50
2023-02-18T11:33:37.883Z,26.40
2023-02-18T11:36:36.700Z,26.40
2023-02-18T11:39:16.632Z,26.40
2023-02-18T11:41:59.880Z,26.40
2023-02-18T11:44:50.285Z,26.40
2023-02-18T11:47:21.689Z,26.40
2023-02-18T11:50:12.774Z,26.40
2023-02-18T11:52:48.911Z,26.40
2023-02-18T11:55:28.856Z,26.40
2023-02-18T11:58:10.266Z,26.40
2023-02-18T12:00:49.811Z,26.40
2023-02-18T12:04:07.450Z,26.40
2023-02-18T12:07:03.390Z,26.40
2023-02-18T12:09:42.577Z,26.30
2023-02-18T12:12:18.776Z,26.30
2023-02-18T12:14:49.003Z,26.30
2023-02-18T12:17:40.546Z,26.30
2023-02-18T12:20:35.514Z,26.40
2023-02-18T12:23:21.183Z,26.30
2023-02-18T12:25:57.521Z,26.30
2023-02-18T12:29:04.018Z,26.30
2023-02-18T12:31:56.828Z,26.30
2023-02-18T12:34:42.545Z,26.30
2023-02-18T12:37:48.848Z,26.20
2023-02-18T12:41:11.241Z,26.30
2023-02-18T12:43:53.974Z,26.30
2023-02-18T12:46:50.125Z,26.20
2023-02-18T12:49:55.071Z,26.20
2023-02-18T12:52:31.425Z,26.20
2023-02-18T12:55:38.222Z,26.20
2023-02-18T12:58:36.060Z,26.20
2023-02-18T13:01:42.023Z,26.20
2023-02-18T13:04:38.685Z,26.20
2023-02-18T13:07:32.838Z,26.20
2023-02-18T13:10:23.966Z,26.20
2023-02-18T13:13:27.968Z,26.20
2023-02-18T13:16:16.838Z,26.20
2023-02-18T13:18:55.847Z,26.20
2023-02-18T13:21:26.563Z,26.10
2023-02-18T13:24:13.293Z,26.10
2023-02-18T13:26:48.109Z,26.10
2023-02-18T13:29:30.341Z,26.10
2023-02-18T13:32:12.272Z,26.10
2023-02-18T13:35:10.039Z,26.10
2023-02-18T13:37:58.811Z,26.10
2023-02-18T13:40:32.282Z,26.10
2023-02-18T13:43:23.489Z,26.10
2023-02-18T13:46:16.755Z,26.10
2023-02-18T13:49:05.420Z,26.10
2023-02-18T13:51:46.433Z,26.00
2023-02-18T13:54:19.281Z,26.00
2023-02-18T13:57:05.515Z,26.00
2023-02-18T13:59:44.739Z,26.00
2023-02-18T14:02:24.124Z,26.00
2023-02-18T14:04:57.856Z,26.00
2023-02-18T14:07:30.891Z,26.00
2023-02-18T14:10:02.937Z,26.00
2023-02-18T14:12:42.235Z,26.00
2023-02-18T14:15:21.741Z,26.00
2023-02-18T14:18:08.084Z,25.90
2023-02-18T14:20:44.507Z,25.90
2023-02-18T14:23:23.689Z,25.90
2023-02-18T14:26:00.118Z,25.90
2023-02-18T14:28:41.245Z,25.90
2023-02-18T14:31:35.888Z,25.90
2023-02-18T14:34:35.957Z,25.90
2023-02-18T14:37:27.461Z,25.80
2023-02-18T14:40:08.147Z,25.80
2023-02-18T14:43:25.110Z,25.80
2023-02-18T14:46:25.089Z,25.80
2023-02-18T14:49:16.094Z,25.80
2023-02-18T14:51:49.761Z,25.80
2023-02-18T14:54:26.232Z,25.80
2023-02-18T14:57:19.425Z,25.80
2023-02-18T14:59:49.872Z,25.80
2023-02-18T15:02:26.969Z,25.70
2023-02-18T15:04:57.761Z,25.70
2023-02-18T15:07:28.259Z,25.70
2023-02-18T15:09:59.540Z,25.70
2023-02-18T15:12:30.440Z,25.70
2023-02-18T15:15:06.309Z,25.70
2023-02-18T15:17:36.633Z,25.70
2023-02-18T15:20:10.754Z,25.70
2023-02-18T15:22:41.225Z,25.70
2023-02-18T15:25:15.576Z,25.60
2023-02-18T15:27:48.583Z,25.60
2023-02-18T15:30:24.338Z,25.60
2023-02-18T15:32:57.083Z,25.60
2023-02-18T15:35:33.134Z,25.60
2023-02-18T15:38:06.216Z,25.60
2023-02-18T15:40:39.597Z,25.60
2023-02-18T15:43:11.135Z,25.60
2023-02-18T15:45:46.933Z,25.50
2023-02-18T15:48:34.843Z,25.50
2023-02-18T15:51:17.877Z,25.50
2023-02-18T15:53:55.085Z,25.50
2023-02-18T15:56:38.206Z,25.50
2023-02-18T15:59:28.342Z,25.50
2023-02-18T16:02:18.409Z,25.50
2023-02-18T16:05:04.992Z,25.50
2023-02-18T16:07:51.881Z,25.50
2023-02-18T16:10:27.282Z,25.40
2023-02-18T16:13:02.136Z,25.40
2023-02-18T16:15:39.490Z,25.40
2023-02-18T16:18:22.842Z,25.40
2023-02-18T16:21:06.000Z,25.40
2023-02-18T16:23:45.952Z,25.40
2023-02-18T16:26:29.887Z,25.40
2023-02-18T16:29:14.106Z,25.40
2023-02-18T16:31:45.530Z,25.30
2023-02-18T16:34:18.347Z,25.30
2023-02-18T16:37:07.515Z,25.30
2023-02-18T16:39:38.423Z,25.30
2023-02-18T16:42:15.673Z,25.30
2023-02-18T16:44:45.962Z,25.30
2023-02-18T16:47:19.149Z,25.20
2023-02-18T16:49:52.264Z,25.20
2023-02-18T16:52:22.555Z,25.20
2023-02-18T16:54:54.993Z,25.20
2023-02-18T16:57:25.315Z,25.20
2023-02-18T16:59:55.582Z,25.20
2023-02-18T17:02:26.027Z,25.20
2023-02-18T17:04:59.118Z,25.20
2023-02-18T17:07:29.624Z,25.20
2023-02-18T17:09:59.841Z,25.10
2023-02-18T17:12:30.096Z,25.10
2023-02-18T17:15:00.438Z,25.10
2023-02-18T17:17:30.694Z,25.10
2023-02-18T17:20:00.919Z,25.10
2023-02-18T17:22:31.099Z,25.10
2023-02-18T17:25:01.297Z,25.10
2023-02-18T17:27:31.476Z,25.10
2023-02-18T17:30:01.674Z,25.00
2023-02-18T17:32:32.100Z,25.00
2023-02-18T17:35:02.456Z,25.00
2023-02-18T17:37:32.728Z,25.00
2023-02-18T17:40:03.172Z,25.00
2023-02-18T17:42:37.140Z,24.90
2023-02-18T17:45:17.705Z,25.00
2023-02-18T17:47:48.086Z,25.00
2023-02-18T17:50:19.119Z,24.90
2023-02-18T17:52:49.712Z,24.90
2023-02-18T17:55:23.825Z,24.90
2023-02-18T17:57:55.546Z,24.90
2023-02-18T18:00:38.247Z,24.90
2023-02-18T18:03:09.103Z,24.90
2023-02-18T18:05:41.708Z,24.90
2023-02-18T18:08:13.014Z,24.80
2023-02-18T18:10:50.400Z,24.80
2023-02-18T18:13:33.958Z,24.80
2023-02-18T18:16:04.289Z,24.80
2023-02-18T18:18:34.629Z,24.80
2023-02-18T18:21:08.146Z,24.80
2023-02-18T18:23:38.477Z,24.70
2023-02-18T18:26:08.779Z,24.70
2023-02-18T18:28:39.130Z,24.70
2023-02-18T18:31:12.161Z,24.70
2023-02-18T18:33:43.903Z,24.70
2023-02-18T18:36:14.368Z,24.70
2023-02-18T18:38:44.832Z,24.70
2023-02-18T18:41:23.945Z,24.70
2023-02-18T18:43:54.149Z,24.70
2023-02-18T18:46:24.391Z,24.60
2023-02-18T18:48:54.594Z,24.60
2023-02-18T18:51:30.419Z,24.60
2023-02-18T18:54:00.669Z,24.70
2023-02-18T18:56:30.985Z,24.60
2023-02-18T18:59:01.472Z,24.60
2023-02-18T19:01:32.448Z,24.60
2023-02-18T19:04:02.703Z,24.60
2023-02-18T19:06:33.047Z,24.60
2023-02-18T19:09:03.228Z,24.60
2023-02-18T19:11:33.398Z,24.60
2023-02-18T19:14:03.650Z,24.60
2023-02-18T19:16:40.046Z,24.60
2023-02-18T19:19:13.432Z,24.60
2023-02-18T19:21:44.588Z,24.60
2023-02-18T19:24:14.936Z,24.50
2023-02-18T19:26:45.158Z,24.50
2023-02-18T19:29:15.574Z,24.50
2023-02-18T19:31:46.700Z,24.50
2023-02-18T19:34:17.182Z,24.50
2023-02-18T19:36:48.357Z,24.50
2023-02-18T19:39:18.726Z,24.50
2023-02-18T19:41:48.949Z,24.40
2023-02-18T19:44:19.369Z,24.40
2023-02-18T19:46:49.773Z,24.40
2023-02-18T19:49:20.093Z,24.40
2023-02-18T19:51:50.569Z,24.40
2023-02-18T19:54:20.814Z,24.40
2023-02-18T19:56:51.116Z,24.40
2023-02-18T19:59:21.326Z,24.30
2023-02-18T20:01:51.638Z,24.30
2023-02-18T20:04:21.858Z,24.30
2023-02-18T20:06:52.106Z,24.30
2023-02-18T20:09:22.326Z,24.30
2023-02-18T20:11:52.797Z,24.30
2023-02-18T20:14:25.529Z,24.30
2023-02-18T20:16:56.531Z,24.30
2023-02-18T20:19:31.715Z,24.30
2023-02-18T20:22:03.047Z,24.20
2023-02-18T20:24:34.512Z,24.20
2023-02-18T20:27:04.835Z,24.20
2023-02-18T20:29:38.062Z,24.20
2023-02-18T20:32:09.201Z,24.20
2023-02-18T20:34:39.637Z,24.10
2023-02-18T20:37:09.996Z,24.20
2023-02-18T20:39:40.375Z,24.10
2023-02-18T20:42:16.350Z,24.10
2023-02-18T20:44:47.772Z,24.10
2023-02-18T20:47:18.490Z,24.10
2023-02-18T20:49:49.035Z,24.10
2023-02-18T20:52:19.824Z,24.10
2023-02-18T20:54:50.490Z,24.00
2023-02-18T20:57:20.849Z,24.00
2023-02-18T20:59:51.216Z,24.00
2023-02-18T21:02:21.533Z,24.00
2023-02-18T21:04:51.714Z,24.00
2023-02-18T21:07:22.165Z,24.00
2023-02-18T21:09:52.677Z,24.00
2023-02-18T21:12:23.483Z,24.00
2023-02-18T21:14:53.999Z,24.00
2023-02-18T21:17:24.618Z,24.00
2023-02-18T21:19:55.576Z,24.00
2023-02-18T21:22:26.095Z,23.90
2023-02-18T21:24:56.326Z,23.90
2023-02-18T21:27:26.670Z,23.90
2023-02-18T21:29:56.979Z,23.90
2023-02-18T21:32:27.547Z,23.90
2023-02-18T21:34:57.824Z,23.90
2023-02-18T21:37:28.114Z,23.90
2023-02-18T21:39:58.338Z,23.90
2023-02-18T21:42:28.566Z,23.90
2023-02-18T21:44:58.791Z,23.90
2023-02-18T21:47:29.013Z,23.90
2023-02-18T21:49:59.239Z,23.90
2023-02-18T21:52:33.908Z,23.90
2023-02-18T21:55:04.179Z,23.80
2023-02-18T21:57:34.679Z,23.80
2023-02-18T22:00:19.658Z,23.80
2023-02-18T22:02:50.645Z,23.80
2023-02-18T22:05:20.933Z,23.80
2023-02-18T22:07:51.201Z,23.80
2023-02-18T22:10:21.589Z,23.80
2023-02-18T22:12:51.855Z,23.80
2023-02-18T22:15:22.043Z,23.80
2023-02-18T22:17:52.277Z,23.80
2023-02-18T22:20:22.572Z,23.80
2023-02-18T22:22:52.876Z,23.80
2023-02-18T22:25:23.082Z,23.80
2023-02-18T22:27:53.306Z,23.80
2023-02-18T22:30:23.566Z,23.80
2023-02-18T22:32:53.857Z,23.80
2023-02-18T22:35:24.100Z,23.80
2023-02-18T22:37:54.380Z,23.80
2023-02-18T22:40:24.623Z,23.80
2023-02-18T22:42:55.134Z,23.80
2023-02-18T22:45:25.850Z,23.80
2023-02-18T22:47:56.478Z,23.80
2023-02-18T22:50:26.821Z,23.70
2023-02-18T22:52:57.105Z,23.70
2023-02-18T22:55:27.401Z,23.70
2023-02-18T22:57:57.674Z,23.70
2023-02-18T23:00:28.698Z,23.70
2023-02-18T23:02:59.199Z,23.70
2023-02-18T23:05:29.598Z,23.70
2023-02-18T23:07:59.977Z,23.70
2023-02-18T23:10:30.404Z,23.70
2023-02-18T23:13:00.876Z,23.70
2023-02-18T23:15:31.426Z,23.70
2023-02-18T23:18:01.896Z,23.70
2023-02-18T23:20:50.087Z,23.70
2023-02-18T23:23:20.388Z,23.70
2023-02-18T23:25:50.749Z,23.70
2023-02-18T23:28:21.041Z,23.70
2023-02-18T23:30:51.263Z,23.70
2023-02-18T23:33:21.560Z,23.70
2023-02-18T23:35:51.746Z,23.70
2023-02-18T23:38:28.063Z,23.70
2023-02-18T23:40:58.413Z,23.70
2023-02-18T23:43:32.144Z,23.70
2023-02-18T23:46:02.652Z,23.70
2023-02-18T23:48:38.183Z,23.70
2023-02-18T23:51:11.756Z,23.80
2023-02-18T23:53:42.450Z,23.70
2023-02-18T23:56:21.473Z,23.70
2023-02-18T23:58:55.215Z,23.80
